Time;durP1;ratioP1;P1;durP2;ratioP2;P2;SDS_P1;SDS_P2;PMS_P1;PMS_P2;Temp;Humidity;BMP_temperature;BMP_pressure;BME280_temperature;BME280_humidity;BME280_pressure;Samples;Min_cycle;Max_cycle;Signal;HPM_P1;HPM_P2
2023/01/10 00:01:46;;;;;;;24.03;17.23;;;6.80;96.30;;;;;;4980382;28;20305;-63
2023/01/10 00:04:13;;;;;;;26.87;16.43;;;6.80;96.30;;;;;;4984018;28;20275;-63
2023/01/10 00:06:40;;;;;;;24.47;17.97;;;6.70;96.30;;;;;;4980563;28;20200;-63
2023/01/10 00:09:09;;;;;;;25.97;18.50;;;6.70;96.30;;;;;;4998255;28;20643;-64
2023/01/10 00:14:21;;;;;;;26.50;18.07;;;6.70;96.60;;;;;;4983763;28;20212;-63
2023/01/10 00:16:48;;;;;;;26.97;18.43;;;6.70;96.70;;;;;;4977082;28;20205;-64
2023/01/10 00:19:15;;;;;;;24.23;16.40;;;6.70;96.80;;;;;;4979263;28;20298;-63
2023/01/10 00:21:42;;;;;;;22.20;17.70;;;6.70;96.90;;;;;;4985852;28;20235;-63
2023/01/10 00:24:21;;;;;;;25.23;17.03;;;6.70;97.00;;;;;;4984787;28;20618;-63
2023/01/10 00:26:50;;;;;;;25.30;16.97;;;6.70;97.00;;;;;;5001565;28;20211;-63
2023/01/10 00:29:19;;;;;;;21.57;15.10;;;6.80;97.00;;;;;;4985543;28;20288;-63
2023/01/10 00:31:46;;;;;;;23.10;15.97;;;6.70;97.00;;;;;;4984889;28;20205;-63
2023/01/10 00:34:13;;;;;;;22.33;15.90;;;6.80;97.00;;;;;;4984985;28;20209;-63
2023/01/10 00:36:41;;;;;;;21.10;13.93;;;6.80;97.00;;;;;;4991556;28;20303;-64
2023/01/10 00:39:09;;;;;;;24.63;14.33;;;6.70;96.90;;;;;;4986842;28;20267;-63
2023/01/10 00:44:24;;;;;;;22.10;12.47;;;6.70;96.80;;;;;;4983498;28;20231;-64
2023/01/10 00:46:52;;;;;;;21.57;14.30;;;6.70;96.80;;;;;;4985415;28;20320;-63
2023/01/10 00:49:19;;;;;;;18.87;13.80;;;6.70;96.80;;;;;;4979582;28;20295;-63
2023/01/10 00:51:46;;;;;;;22.20;13.80;;;6.70;96.80;;;;;;4983659;28;20296;-63
2023/01/10 00:54:14;;;;;;;17.17;12.60;;;6.60;96.80;;;;;;4992161;28;20467;-63
2023/01/10 00:56:41;;;;;;;19.80;13.27;;;6.60;96.70;;;;;;4980188;28;20197;-63
2023/01/10 00:59:08;;;;;;;16.70;12.40;;;6.60;96.70;;;;;;4984353;28;20271;-63
2023/01/10 01:01:35;;;;;;;16.73;12.73;;;6.60;96.50;;;;;;4986299;28;20226;-63
2023/01/10 01:04:03;;;;;;;18.17;12.70;;;6.50;96.40;;;;;;4986983;28;20220;-63
2023/01/10 01:06:30;;;;;;;17.40;12.90;;;6.50;96.40;;;;;;4986314;28;20502;-63
2023/01/10 01:08:57;;;;;;;18.93;13.37;;;6.40;96.40;;;;;;4986053;28;20388;-64
2023/01/10 01:11:24;;;;;;;18.57;13.07;;;6.30;96.40;;;;;;4982815;28;20596;-63
2023/01/10 01:13:51;;;;;;;19.47;13.00;;;6.30;96.40;;;;;;4982166;28;20204;-62
2023/01/10 01:16:19;;;;;;;22.90;14.40;;;6.30;96.40;;;;;;4989925;28;20212;-63
2023/01/10 01:18:46;;;;;;;20.33;13.33;;;6.20;96.40;;;;;;4982518;28;20205;-63
2023/01/10 01:21:13;;;;;;;19.60;13.33;;;6.20;96.60;;;;;;4987996;28;20267;-63
2023/01/10 01:23:40;;;;;;;23.43;14.30;;;6.20;96.60;;;;;;4988548;28;20200;-63
2023/01/10 01:26:07;;;;;;;17.77;13.37;;;6.30;96.70;;;;;;4994373;28;20656;-63
2023/01/10 01:28:34;;;;;;;18.27;13.07;;;6.30;96.70;;;;;;4986778;28;20642;-63
2023/01/10 01:31:07;;;;;;;19.20;12.80;;;6.30;96.70;;;;;;4987821;28;20215;-63
2023/01/10 01:33:34;;;;;;;17.83;13.33;;;6.20;96.60;;;;;;4987302;28;20484;-64
2023/01/10 01:36:01;;;;;;;18.60;12.67;;;6.20;96.60;;;;;;4981862;28;20209;-63
2023/01/10 01:38:28;;;;;;;17.37;11.47;;;6.20;96.60;;;;;;4991179;28;20200;-64
2023/01/10 01:40:55;;;;;;;16.37;12.27;;;6.10;96.60;;;;;;5007065;28;20211;-63
2023/01/10 01:43:22;;;;;;;19.33;13.13;;;6.10;96.60;;;;;;4990006;28;20682;-64
2023/01/10 01:45:49;;;;;;;19.30;12.73;;;6.10;96.50;;;;;;4983958;28;20232;-63
2023/01/10 01:48:16;;;;;;;17.50;12.83;;;6.10;96.50;;;;;;4989587;28;20259;-63
2023/01/10 01:50:58;;;;;;;17.63;11.77;;;6.10;96.50;;;;;;4987868;28;20196;-63
2023/01/10 01:53:36;;;;;;;15.77;11.73;;;6.00;96.40;;;;;;4990246;28;20236;-63
2023/01/10 01:56:09;;;;;;;17.40;11.93;;;6.00;96.40;;;;;;4990931;28;20673;-63
2023/01/10 01:58:44;;;;;;;16.57;11.80;;;6.00;96.30;;;;;;4987967;28;20274;-63
2023/01/10 02:01:13;;;;;;;17.67;10.87;;;6.00;96.30;;;;;;4985971;28;20205;-63
2023/01/10 02:03:43;;;;;;;18.17;12.43;;;5.90;96.30;;;;;;5004439;28;20205;-63
2023/01/10 02:06:11;;;;;;;17.07;11.03;;;5.90;96.20;;;;;;5006815;28;20224;-63
2023/01/10 02:08:46;;;;;;;17.23;11.57;;;5.90;96.20;;;;;;4990059;28;20566;-63
2023/01/10 02:11:13;;;;;;;17.53;11.23;;;5.80;96.20;;;;;;4983678;28;20252;-63
2023/01/10 02:13:43;;;;;;;16.07;11.80;;;5.80;96.20;;;;;;4986937;28;20198;-63
2023/01/10 02:16:10;;;;;;;24.97;12.40;;;5.80;96.30;;;;;;4986645;28;20204;-63
2023/01/10 02:18:41;;;;;;;15.67;11.10;;;5.80;96.30;;;;;;4980066;28;20291;-63
2023/01/10 02:21:43;;;;;;;18.30;11.83;;;5.80;96.30;;;;;;4990829;28;20647;-63
2023/01/10 02:24:36;;;;;;;17.60;10.27;;;5.80;96.30;;;;;;4984357;28;20521;-63
2023/01/10 02:27:26;;;;;;;16.50;10.37;;;5.80;96.30;;;;;;4988237;28;20212;-63
2023/01/10 02:30:21;;;;;;;15.67;10.47;;;5.70;96.20;;;;;;4986552;28;20679;-63
2023/01/10 02:33:08;;;;;;;14.43;10.03;;;5.70;96.20;;;;;;4985675;28;20500;-63
2023/01/10 02:35:55;;;;;;;15.70;10.47;;;5.70;96.20;;;;;;4988904;28;20216;-63
2023/01/10 02:38:31;;;;;;;11.30;9.07;;;5.60;96.10;;;;;;4985393;28;20709;-63
2023/01/10 02:41:33;;;;;;;14.90;9.97;;;5.60;96.10;;;;;;4984212;28;20208;-63
2023/01/10 02:44:30;;;;;;;15.30;10.10;;;5.60;96.20;;;;;;4987939;28;20212;-63
2023/01/10 02:46:56;;;;;;;14.27;10.53;;;5.50;96.10;;;;;;4985923;28;20216;-63
2023/01/10 02:49:23;;;;;;;15.23;10.80;;;5.50;96.10;;;;;;4986037;28;20213;-64
2023/01/10 02:51:51;;;;;;;16.20;10.80;;;5.50;96.10;;;;;;4985158;28;20614;-63
2023/01/10 02:54:22;;;;;;;14.40;10.60;;;5.50;96.00;;;;;;4990653;28;20223;-63
2023/01/10 02:57:23;;;;;;;19.30;11.90;;;5.40;96.00;;;;;;4985173;28;20219;-63
2023/01/10 03:00:09;;;;;;;13.83;9.87;;;5.30;96.00;;;;;;4981918;28;20215;-63
2023/01/10 03:02:56;;;;;;;16.23;11.13;;;5.30;96.00;;;;;;4985262;28;20213;-63
2023/01/10 03:05:46;;;;;;;20.80;12.60;;;5.30;96.10;;;;;;4986397;28;20224;-63
2023/01/10 03:08:25;;;;;;;17.03;11.37;;;5.30;96.00;;;;;;4979898;28;20217;-63
2023/01/10 03:10:57;;;;;;;19.50;12.03;;;5.20;95.90;;;;;;4987810;28;20507;-63
2023/01/10 03:13:26;;;;;;;17.17;11.27;;;5.20;96.00;;;;;;4985535;28;20193;-63
2023/01/10 03:15:55;;;;;;;15.43;10.20;;;5.20;96.10;;;;;;4986326;28;20210;-64
2023/01/10 03:18:30;;;;;;;14.00;10.83;;;5.20;96.20;;;;;;4978438;28;20201;-63
2023/01/10 03:21:01;;;;;;;15.53;10.50;;;5.20;96.10;;;;;;4982948;28;20526;-64
2023/01/10 03:23:31;;;;;;;14.13;9.97;;;5.20;96.10;;;;;;4988845;28;20354;-63
2023/01/10 03:25:59;;;;;;;15.97;10.27;;;5.20;96.00;;;;;;4982515;28;20383;-63
2023/01/10 03:28:50;;;;;;;14.80;10.30;;;5.20;95.90;;;;;;4983804;28;20211;-63
2023/01/10 03:31:29;;;;;;;12.50;9.30;;;5.20;95.90;;;;;;4984819;28;20282;-63
2023/01/10 03:33:57;;;;;;;14.23;9.17;;;5.20;95.80;;;;;;4985038;28;20548;-63
2023/01/10 03:36:48;;;;;;;11.43;8.77;;;5.10;95.80;;;;;;4981316;28;20204;-63
2023/01/10 03:39:35;;;;;;;15.00;8.07;;;5.10;95.70;;;;;;4985011;28;20262;-63
2023/01/10 03:42:17;;;;;;;10.43;7.87;;;5.10;95.60;;;;;;4982214;28;20517;-63
2023/01/10 03:45:12;;;;;;;9.83;7.20;;;5.10;95.60;;;;;;4985647;28;20654;-63
2023/01/10 03:47:46;;;;;;;13.27;8.17;;;5.10;95.50;;;;;;4985601;28;20214;-63
2023/01/10 03:50:25;;;;;;;10.17;7.00;;;5.10;95.50;;;;;;4985545;28;20204;-63
2023/01/10 03:52:52;;;;;;;10.03;6.83;;;5.10;95.40;;;;;;4984642;28;20235;-63
2023/01/10 03:55:22;;;;;;;9.37;6.70;;;5.10;95.30;;;;;;4989362;28;20648;-63
2023/01/10 03:57:49;;;;;;;9.40;6.23;;;5.10;95.20;;;;;;4984188;28;20219;-63
2023/01/10 04:00:17;;;;;;;9.30;6.20;;;5.10;95.10;;;;;;4982966;28;20525;-63
2023/01/10 04:02:44;;;;;;;8.17;5.80;;;5.10;95.10;;;;;;4986341;28;20282;-63
2023/01/10 04:05:12;;;;;;;9.43;5.37;;;5.10;95.00;;;;;;4987660;28;20224;-64
2023/01/10 04:07:39;;;;;;;11.97;7.43;;;5.10;94.90;;;;;;4986662;28;20197;-63
2023/01/10 04:10:07;;;;;;;9.17;5.17;;;5.10;94.80;;;;;;4982967;28;20205;-63
2023/01/10 04:12:34;;;;;;;9.67;5.47;;;5.10;94.70;;;;;;4979399;28;20210;-63
2023/01/10 04:15:01;;;;;;;6.77;5.53;;;5.10;94.60;;;;;;4981589;28;20218;-63
2023/01/10 04:17:29;;;;;;;8.43;5.23;;;5.10;94.50;;;;;;4984078;28;20235;-63
2023/01/10 04:19:56;;;;;;;7.13;4.90;;;5.00;94.40;;;;;;4986713;28;20543;-63
2023/01/10 04:22:23;;;;;;;8.17;5.47;;;5.00;94.30;;;;;;4984061;28;20235;-63
2023/01/10 04:24:53;;;;;;;6.33;4.67;;;5.00;94.30;;;;;;4982694;28;20659;-63
2023/01/10 04:27:20;;;;;;;6.27;4.50;;;5.00;94.20;;;;;;4979454;28;20558;-63
2023/01/10 04:29:47;;;;;;;5.13;4.23;;;5.00;94.10;;;;;;4983499;28;20199;-63
2023/01/10 04:32:14;;;;;;;6.90;4.90;;;5.00;94.00;;;;;;4981805;28;20644;-63
2023/01/10 04:34:41;;;;;;;11.63;3.90;;;4.90;94.00;;;;;;4985677;28;20266;-63
2023/01/10 04:37:08;;;;;;;7.70;4.63;;;4.90;93.90;;;;;;4980987;28;20204;-63
2023/01/10 04:39:35;;;;;;;6.57;4.70;;;4.90;93.90;;;;;;4985172;28;20213;-63
2023/01/10 04:42:02;;;;;;;5.60;3.70;;;4.90;93.70;;;;;;4976466;28;20648;-63
2023/01/10 04:44:29;;;;;;;5.80;3.97;;;5.00;93.50;;;;;;4984650;28;20600;-63
2023/01/10 04:46:56;;;;;;;6.93;4.00;;;4.90;93.40;;;;;;4983302;28;20674;-63
2023/01/10 04:49:23;;;;;;;4.37;3.27;;;5.00;93.40;;;;;;4987182;28;20204;-63
2023/01/10 04:51:50;;;;;;;6.13;4.20;;;5.00;93.30;;;;;;4988340;28;20251;-63
2023/01/10 04:54:21;;;;;;;4.93;3.20;;;5.00;93.20;;;;;;5003811;28;20203;-63
2023/01/10 04:56:49;;;;;;;4.30;3.17;;;5.00;93.10;;;;;;4989119;28;20852;-63
2023/01/10 04:59:16;;;;;;;5.23;3.00;;;5.10;92.90;;;;;;4988175;28;20204;-63
2023/01/10 05:01:43;;;;;;;3.87;3.07;;;5.10;92.70;;;;;;4987261;28;20217;-63
2023/01/10 05:04:11;;;;;;;3.37;2.80;;;5.10;92.60;;;;;;4992717;28;20206;-63
2023/01/10 05:06:39;;;;;;;6.13;3.97;;;5.10;92.60;;;;;;4987043;28;20217;-63
2023/01/10 05:09:07;;;;;;;3.80;2.83;;;5.10;92.40;;;;;;4988266;28;20201;-63
2023/01/10 05:11:34;;;;;;;4.53;3.10;;;5.10;92.40;;;;;;4986878;28;20486;-63
2023/01/10 05:14:01;;;;;;;5.83;3.30;;;5.10;92.30;;;;;;4986969;28;20212;-63
2023/01/10 05:16:28;;;;;;;4.83;3.07;;;5.00;92.20;;;;;;4987894;28;20208;-63
2023/01/10 05:18:55;;;;;;;5.67;3.30;;;5.00;92.10;;;;;;4986960;28;20216;-62
2023/01/10 05:21:22;;;;;;;5.97;2.80;;;5.00;92.10;;;;;;4987514;28;20204;-63
2023/01/10 05:23:49;;;;;;;3.37;2.63;;;5.00;92.10;;;;;;4988381;28;20270;-63
2023/01/10 05:26:20;;;;;;;4.63;2.53;;;4.90;92.00;;;;;;4986356;28;20212;-63
2023/01/10 05:28:47;;;;;;;2.93;2.27;;;4.90;91.90;;;;;;4989580;28;20204;-64
2023/01/10 05:31:17;;;;;;;2.37;1.60;;;4.90;92.00;;;;;;4987452;28;20208;-63
2023/01/10 05:33:46;;;;;;;4.87;2.07;;;4.90;91.90;;;;;;4993459;28;20198;-63
2023/01/10 05:36:13;;;;;;;5.20;1.97;;;5.00;91.90;;;;;;4990852;28;20205;-63
2023/01/10 05:38:40;;;;;;;1.87;1.67;;;5.00;91.80;;;;;;4987935;28;20213;-63
2023/01/10 05:41:08;;;;;;;2.07;1.67;;;5.10;91.80;;;;;;4983718;28;20206;-63
2023/01/10 05:43:35;;;;;;;2.27;1.47;;;5.10;91.60;;;;;;4984223;28;20266;-63
2023/01/10 05:46:02;;;;;;;4.33;2.10;;;5.20;91.40;;;;;;4989953;28;20217;-63
2023/01/10 05:48:29;;;;;;;4.50;1.73;;;5.30;91.20;;;;;;4983588;28;20200;-63
2023/01/10 05:50:56;;;;;;;1.83;1.27;;;5.30;91.00;;;;;;4987368;28;20209;-63
2023/01/10 05:53:23;;;;;;;3.87;1.80;;;5.40;90.80;;;;;;4986944;28;20245;-63
2023/01/10 05:55:55;;;;;;;3.97;1.87;;;5.40;90.70;;;;;;4986809;28;20192;-63
2023/01/10 05:58:22;;;;;;;1.80;1.53;;;5.50;90.50;;;;;;4984288;28;20532;-63
2023/01/10 06:00:50;;;;;;;2.83;1.53;;;5.50;90.30;;;;;;4983775;28;20220;-63
2023/01/10 06:03:17;;;;;;;3.47;2.03;;;5.50;90.20;;;;;;4990828;28;20227;-63
2023/01/10 06:05:45;;;;;;;2.00;1.80;;;5.50;90.10;;;;;;4993851;28;20238;-63
2023/01/10 06:08:15;;;;;;;3.27;1.77;;;5.50;90.00;;;;;;4990664;28;20211;-63
2023/01/10 06:10:42;;;;;;;4.10;1.90;;;5.60;90.00;;;;;;4987227;28;20193;-63
2023/01/10 06:13:10;;;;;;;3.97;2.20;;;5.50;89.90;;;;;;4989196;28;20209;-63
2023/01/10 06:15:38;;;;;;;3.63;1.70;;;5.50;89.90;;;;;;4980937;28;20201;-63
2023/01/10 06:18:06;;;;;;;1.63;1.53;;;5.50;89.80;;;;;;4983489;28;20210;-63
2023/01/10 06:20:33;;;;;;;2.27;1.77;;;5.50;89.70;;;;;;4987133;28;20319;-63
2023/01/10 06:23:03;;;;;;;2.90;1.47;;;5.50;89.70;;;;;;4991082;28;20494;-63
2023/01/10 06:25:32;;;;;;;2.53;1.90;;;5.50;89.60;;;;;;4988468;28;20534;-63
2023/01/10 06:27:59;;;;;;;3.13;1.93;;;5.50;89.40;;;;;;4985125;28;20208;-63
2023/01/10 06:30:26;;;;;;;2.93;1.97;;;5.50;89.20;;;;;;4984922;28;20208;-63
2023/01/10 06:32:58;;;;;;;4.60;1.93;;;5.50;89.00;;;;;;4984555;28;20221;-63
2023/01/10 06:35:25;;;;;;;3.53;1.90;;;5.50;88.80;;;;;;4992048;28;20633;-63
2023/01/10 06:37:52;;;;;;;3.53;1.37;;;5.50;88.70;;;;;;4989673;28;20693;-63
2023/01/10 06:40:19;;;;;;;1.47;1.27;;;5.50;88.50;;;;;;4986375;28;20213;-63
2023/01/10 06:42:46;;;;;;;2.13;1.70;;;5.50;88.50;;;;;;4986342;28;20204;-63
2023/01/10 06:45:13;;;;;;;1.80;1.40;;;5.50;88.40;;;;;;4983042;28;20622;-63
2023/01/10 06:47:41;;;;;;;4.97;1.57;;;5.50;88.40;;;;;;4979551;28;20271;-63
2023/01/10 06:50:09;;;;;;;1.73;1.43;;;5.50;88.40;;;;;;4982278;28;20255;-64
2023/01/10 06:52:36;;;;;;;2.00;1.60;;;5.50;88.50;;;;;;4985781;28;20239;-63
2023/01/10 06:55:04;;;;;;;3.03;1.77;;;5.50;88.40;;;;;;4985938;28;20571;-63
2023/01/10 06:57:34;;;;;;;1.90;1.50;;;5.50;88.50;;;;;;4987052;28;20271;-63
2023/01/10 07:00:07;;;;;;;3.03;1.43;;;5.50;88.70;;;;;;4979604;28;20243;-63
2023/01/10 07:02:35;;;;;;;2.50;1.60;;;5.50;88.40;;;;;;5001752;28;20193;-63
2023/01/10 07:05:02;;;;;;;4.13;1.57;;;5.50;88.20;;;;;;4990452;28;20228;-63
2023/01/10 07:07:29;;;;;;;4.53;1.47;;;5.60;88.00;;;;;;4987440;28;20212;-63
2023/01/10 07:09:58;;;;;;;2.30;1.50;;;5.60;87.60;;;;;;4986038;28;20238;-62
2023/01/10 07:12:25;;;;;;;8.23;2.00;;;5.70;87.30;;;;;;4990089;28;20208;-63
2023/01/10 07:14:52;;;;;;;2.33;1.30;;;5.70;86.80;;;;;;4982783;28;20518;-63
2023/01/10 07:17:19;;;;;;;4.07;1.60;;;5.80;86.60;;;;;;4982079;28;20279;-63
2023/01/10 07:19:46;;;;;;;1.53;1.23;;;5.80;86.40;;;;;;4984253;28;20204;-63
2023/01/10 07:22:13;;;;;;;3.17;1.47;;;5.90;86.10;;;;;;4985324;28;20212;-63
2023/01/10 07:24:40;;;;;;;1.30;1.20;;;5.90;85.80;;;;;;4987063;28;20195;-63
2023/01/10 07:27:07;;;;;;;1.23;1.13;;;6.00;85.70;;;;;;4984423;28;20645;-63
2023/01/10 07:29:34;;;;;;;1.30;1.20;;;6.00;85.40;;;;;;4981257;28;20720;-63
2023/01/10 07:32:01;;;;;;;2.80;1.23;;;6.10;85.30;;;;;;4986261;28;20577;-63
2023/01/10 07:34:29;;;;;;;2.83;1.53;;;6.10;85.10;;;;;;4979141;28;20283;-63
2023/01/10 07:36:56;;;;;;;1.60;1.20;;;6.20;85.00;;;;;;4985384;28;20201;-63
2023/01/10 07:39:23;;;;;;;2.07;1.20;;;6.20;84.90;;;;;;4986001;28;20208;-63
2023/01/10 07:41:51;;;;;;;1.00;0.97;;;6.30;84.70;;;;;;4985276;28;20209;-63
2023/01/10 07:44:20;;;;;;;1.67;1.27;;;6.40;84.30;;;;;;4987215;28;20201;-63
2023/01/10 07:46:47;;;;;;;2.33;1.47;;;6.40;83.90;;;;;;4981956;28;20225;-63
2023/01/10 07:49:14;;;;;;;3.67;1.20;;;6.50;83.70;;;;;;4986288;28;20624;-63
2023/01/10 07:51:41;;;;;;;7.37;1.50;;;6.50;83.40;;;;;;4986481;28;20229;-63
2023/01/10 07:54:08;;;;;;;1.70;1.40;;;6.60;83.00;;;;;;4989540;28;20599;-63
2023/01/10 07:56:35;;;;;;;1.43;1.20;;;6.70;82.90;;;;;;4985769;28;20196;-63
2023/01/10 07:59:02;;;;;;;2.47;1.40;;;6.70;82.80;;;;;;4987031;28;20208;-63
2023/01/10 08:01:29;;;;;;;2.27;1.37;;;6.80;82.60;;;;;;4985026;28;20270;-63
2023/01/10 08:03:57;;;;;;;2.17;1.30;;;6.90;82.20;;;;;;4988367;28;20600;-63
2023/01/10 08:06:25;;;;;;;1.83;1.30;;;6.90;82.10;;;;;;4989845;28;20552;-63
2023/01/10 08:08:52;;;;;;;1.53;1.10;;;7.00;81.80;;;;;;4984620;28;20734;-63
2023/01/10 08:11:19;;;;;;;1.30;1.00;;;7.10;81.40;;;;;;4986549;28;20209;-63
2023/01/10 08:13:46;;;;;;;1.07;0.97;;;7.20;81.40;;;;;;4985639;28;20197;-63
2023/01/10 08:16:14;;;;;;;1.90;1.00;;;7.20;80.70;;;;;;4983840;28;20208;-63
2023/01/10 08:18:42;;;;;;;1.13;1.03;;;7.30;80.10;;;;;;4981831;28;20203;-63
2023/01/10 08:21:09;;;;;;;3.17;1.17;;;7.40;80.00;;;;;;4983697;28;20262;-62
2023/01/10 08:23:36;;;;;;;7.03;1.20;;;7.40;80.00;;;;;;4990893;28;20255;-63
2023/01/10 08:26:04;;;;;;;1.47;1.20;;;7.50;79.80;;;;;;4986344;28;20221;-63
2023/01/10 08:28:32;;;;;;;1.63;1.03;;;7.50;79.60;;;;;;4988979;28;20584;-63
2023/01/10 08:31:05;;;;;;;1.70;1.23;;;7.60;79.30;;;;;;4986740;28;20203;-63
2023/01/10 08:33:32;;;;;;;3.27;1.57;;;7.70;79.10;;;;;;4990506;28;20196;-63
2023/01/10 08:35:59;;;;;;;2.77;1.10;;;7.80;79.00;;;;;;4984290;28;20292;-63
2023/01/10 08:38:26;;;;;;;8.50;1.53;;;7.80;78.70;;;;;;4989647;28;20284;-62
2023/01/10 08:40:57;;;;;;;3.43;1.10;;;7.90;78.60;;;;;;4983292;28;20209;-63
2023/01/10 08:43:24;;;;;;;2.53;1.13;;;8.00;78.40;;;;;;4991303;28;20212;-63
2023/01/10 08:45:51;;;;;;;2.57;1.40;;;8.10;78.40;;;;;;4985072;28;20243;-63
2023/01/10 08:48:18;;;;;;;1.90;1.20;;;8.10;77.60;;;;;;4988661;28;20241;-63
2023/01/10 08:50:45;;;;;;;1.20;1.07;;;8.20;77.50;;;;;;4985312;28;20646;-63
2023/01/10 08:53:12;;;;;;;1.13;0.80;;;8.30;77.10;;;;;;4988324;28;20303;-63
2023/01/10 08:55:39;;;;;;;3.97;1.37;;;8.40;77.20;;;;;;4989964;28;20627;-63
2023/01/10 08:58:08;;;;;;;1.40;0.90;;;8.50;77.30;;;;;;4987552;28;20201;-63
2023/01/10 09:00:35;;;;;;;0.87;0.80;;;8.60;76.60;;;;;;4988655;28;20199;-63
2023/01/10 09:03:04;;;;;;;1.33;0.83;;;8.60;76.00;;;;;;4990278;28;20206;-63
2023/01/10 09:05:31;;;;;;;1.10;1.00;;;8.70;75.50;;;;;;4991116;28;20198;-63
2023/01/10 09:08:02;;;;;;;6.00;0.90;;;8.90;75.30;;;;;;4988996;28;20316;-63
2023/01/10 09:10:29;;;;;;;1.00;0.80;;;9.00;74.80;;;;;;5003425;28;20535;-63
2023/01/10 09:13:00;;;;;;;1.23;0.73;;;9.00;74.20;;;;;;4989564;28;20265;-63
2023/01/10 09:15:32;;;;;;;1.00;0.60;;;9.10;73.50;;;;;;4992222;28;20198;-63
2023/01/10 09:18:03;;;;;;;1.53;1.10;;;9.20;73.60;;;;;;4984637;28;20686;-62
2023/01/10 09:20:32;;;;;;;13.60;1.20;;;9.30;73.50;;;;;;4988265;28;20207;-63
2023/01/10 09:23:05;;;;;;;1.00;0.70;;;9.30;72.90;;;;;;4988939;28;20587;-63
2023/01/10 09:25:32;;;;;;;1.10;0.73;;;9.40;72.50;;;;;;4987041;28;20209;-63
2023/01/10 09:28:02;;;;;;;1.73;1.00;;;9.50;72.80;;;;;;4990680;28;20233;-63
2023/01/10 09:30:29;;;;;;;0.80;0.80;;;9.60;72.80;;;;;;4985977;28;20513;-63
2023/01/10 09:32:57;;;;;;;1.57;1.20;;;9.60;72.40;;;;;;4984604;28;20223;-63
2023/01/10 09:35:26;;;;;;;2.43;0.90;;;9.70;72.10;;;;;;4990236;28;20198;-63
2023/01/10 09:37:54;;;;;;;1.10;1.00;;;9.70;71.00;;;;;;4989289;28;20245;-63
2023/01/10 09:40:49;;;;;;;0.83;0.83;;;9.80;71.30;;;;;;4986996;28;20252;-63
2023/01/10 09:43:31;;;;;;;1.07;0.97;;;9.80;71.70;;;;;;4987020;28;20206;-63
2023/01/10 09:46:11;;;;;;;2.63;1.13;;;9.90;71.60;;;;;;4983586;28;20331;-63
2023/01/10 09:49:06;;;;;;;2.93;0.90;;;10.00;70.70;;;;;;4990074;28;20201;-63
2023/01/10 09:51:39;;;;;;;3.27;1.00;;;10.00;70.40;;;;;;4982633;28;20205;-63
2023/01/10 09:54:40;;;;;;;1.63;0.97;;;10.10;69.70;;;;;;4986430;28;20701;-63
2023/01/10 09:57:17;;;;;;;1.70;1.03;;;10.10;70.00;;;;;;4982861;28;20215;-63
2023/01/10 09:59:49;;;;;;;4.07;0.80;;;10.20;70.30;;;;;;4979807;28;20208;-63
2023/01/10 10:02:19;;;;;;;2.80;0.90;;;10.20;70.40;;;;;;4987348;28;20207;-63
2023/01/10 10:05:10;;;;;;;1.40;0.87;;;10.30;70.10;;;;;;4984650;28;20209;-62
2023/01/10 10:07:37;;;;;;;2.03;1.20;;;10.30;70.40;;;;;;4970784;28;20219;-62
2023/01/10 10:10:06;;;;;;;1.70;1.37;;;10.40;70.60;;;;;;4980405;28;20246;-63
2023/01/10 10:12:36;;;;;;;2.03;0.70;;;10.40;70.10;;;;;;4981973;28;20197;-63
2023/01/10 10:15:21;;;;;;;3.53;1.27;;;10.50;69.60;;;;;;4982288;28;20790;-63
2023/01/10 10:17:52;;;;;;;1.47;0.80;;;10.50;68.90;;;;;;4979654;28;20528;-63
2023/01/10 10:20:30;;;;;;;1.10;1.00;;;10.60;68.50;;;;;;4985646;28;20501;-63
2023/01/10 10:23:18;;;;;;;2.10;1.50;;;10.60;67.90;;;;;;4991033;28;20267;-63
2023/01/10 10:26:16;;;;;;;2.47;1.03;;;10.70;68.50;;;;;;4983123;28;20218;-63
2023/01/10 10:28:51;;;;;;;1.40;1.30;;;10.70;68.50;;;;;;4982576;28;20201;-62
2023/01/10 10:31:21;;;;;;;2.93;1.53;;;10.80;68.20;;;;;;4986000;28;20207;-62
2023/01/10 10:34:10;;;;;;;1.40;0.83;;;10.80;68.40;;;;;;4985631;28;20191;-62
2023/01/10 10:36:50;;;;;;;3.27;0.93;;;10.90;68.10;;;;;;4989335;28;20219;-62
2023/01/10 10:39:22;;;;;;;3.30;1.10;;;10.90;67.20;;;;;;4986455;28;20203;-62
2023/01/10 10:41:52;;;;;;;3.70;0.90;;;11.00;67.50;;;;;;4985589;28;20227;-63
2023/01/10 10:44:43;;;;;;;1.33;1.00;;;11.10;67.80;;;;;;4986430;28;20200;-62
2023/01/10 10:47:16;;;;;;;1.23;1.00;;;11.10;68.30;;;;;;4982153;28;20222;-63
2023/01/10 10:50:00;;;;;;;2.63;0.93;;;11.20;68.90;;;;;;4987015;28;20508;-63
2023/01/10 10:52:34;;;;;;;1.70;1.10;;;11.30;68.90;;;;;;4990430;28;20234;-62
2023/01/10 10:55:03;;;;;;;1.93;0.90;;;11.30;67.70;;;;;;4988841;28;20196;-63
2023/01/10 10:57:35;;;;;;;3.13;1.10;;;11.40;67.90;;;;;;4982364;28;20195;-63
2023/01/10 11:00:07;;;;;;;1.77;1.00;;;11.40;67.40;;;;;;4985209;28;20203;-63
2023/01/10 11:02:42;;;;;;;2.60;1.27;;;11.50;67.80;;;;;;4986879;28;20196;-62
2023/01/10 11:05:17;;;;;;;1.87;0.80;;;11.60;68.20;;;;;;4996342;28;20208;-63
2023/01/10 11:07:44;;;;;;;1.37;0.90;;;11.60;67.60;;;;;;4984306;28;20208;-64
2023/01/10 11:12:50;;;;;;;2.03;0.77;;;11.80;67.90;;;;;;4981012;28;20239;-65
2023/01/10 11:15:37;;;;;;;1.53;1.07;;;11.80;66.20;;;;;;4984915;28;20212;-64
2023/01/10 11:18:11;;;;;;;1.00;0.90;;;11.90;65.80;;;;;;4983535;28;20617;-62
2023/01/10 11:20:47;;;;;;;2.57;1.00;;;12.00;66.10;;;;;;4986873;28;20230;-62
2023/01/10 11:23:33;;;;;;;0.87;0.70;;;12.00;65.40;;;;;;4980873;28;20193;-62
2023/01/10 11:26:00;;;;;;;2.27;1.17;;;12.10;65.30;;;;;;4985328;28;20626;-60
2023/01/10 11:28:32;;;;;;;3.13;1.20;;;12.20;65.10;;;;;;4979847;28;20587;-62
2023/01/10 11:31:01;;;;;;;1.17;0.80;;;12.20;64.30;;;;;;4987069;28;20243;-62
2023/01/10 11:33:38;;;;;;;1.43;0.77;;;12.30;64.30;;;;;;4990634;28;20193;-63
2023/01/10 11:36:11;;;;;;;1.90;0.90;;;12.40;64.20;;;;;;4986176;28;20211;-63
2023/01/10 11:38:39;;;;;;;1.70;0.83;;;12.50;64.20;;;;;;4983718;28;20627;-64
2023/01/10 11:41:24;;;;;;;2.83;1.00;;;12.60;63.70;;;;;;4983762;28;20220;-63
2023/01/10 11:43:51;;;;;;;0.77;0.77;;;12.60;64.00;;;;;;4987783;28;20257;-63
2023/01/10 11:46:24;;;;;;;0.83;0.80;;;12.70;63.70;;;;;;4980684;28;20283;-63
2023/01/10 11:49:05;;;;;;;0.87;0.80;;;12.70;62.60;;;;;;4991634;28;20207;-62
2023/01/10 11:51:47;;;;;;;0.80;0.80;;;12.80;63.30;;;;;;4983217;28;20607;-62
2023/01/10 11:54:33;;;;;;;0.80;0.73;;;12.90;63.70;;;;;;4985882;28;20204;-62
2023/01/10 11:57:20;;;;;;;4.20;1.10;;;13.00;62.60;;;;;;4981451;28;20212;-62
2023/01/10 12:00:02;;;;;;;2.60;0.90;;;13.10;61.70;;;;;;4986881;28;20207;-64
2023/01/10 12:02:43;;;;;;;1.47;1.10;;;13.10;61.10;;;;;;4984700;28;20222;-61
2023/01/10 12:05:20;;;;;;;1.23;1.10;;;13.20;61.00;;;;;;4986391;28;20227;-61
2023/01/10 12:07:56;;;;;;;1.00;0.90;;;13.20;59.20;;;;;;4984643;28;20296;-61
2023/01/10 12:10:26;;;;;;;4.80;1.10;;;13.20;59.80;;;;;;4986146;28;20207;-61
2023/01/10 12:12:58;;;;;;;1.43;1.20;;;13.20;60.40;;;;;;4984073;28;20210;-63
2023/01/10 12:15:29;;;;;;;2.20;1.20;;;13.20;59.10;;;;;;4984308;28;20193;-62
2023/01/10 12:18:01;;;;;;;3.30;1.30;;;13.30;59.70;;;;;;4980685;28;20645;-62
2023/01/10 12:20:31;;;;;;;3.33;1.10;;;13.30;60.40;;;;;;4985336;28;20193;-62
2023/01/10 12:23:10;;;;;;;1.63;1.20;;;13.30;60.70;;;;;;4985828;28;20218;-63
2023/01/10 12:25:40;;;;;;;3.03;1.00;;;13.40;60.00;;;;;;4983998;28;20270;-63
2023/01/10 12:28:24;;;;;;;1.30;0.93;;;13.40;59.50;;;;;;4985058;28;20541;-63
2023/01/10 12:30:54;;;;;;;1.80;0.80;;;13.50;59.00;;;;;;4985417;28;20204;-63
2023/01/10 12:33:27;;;;;;;2.00;0.93;;;13.50;58.60;;;;;;4990776;28;20204;-62
2023/01/10 12:36:18;;;;;;;1.30;0.80;;;13.50;58.60;;;;;;4988617;28;20278;-62
2023/01/10 12:39:02;;;;;;;2.03;0.90;;;13.50;58.50;;;;;;4983794;28;20508;-62
2023/01/10 12:44:42;;;;;;;2.93;0.93;;;13.70;59.20;;;;;;4985370;28;20565;-63
2023/01/10 12:47:29;;;;;;;2.47;1.10;;;13.70;59.70;;;;;;4989889;28;20216;-62
2023/01/10 12:50:01;;;;;;;0.70;0.70;;;13.70;59.90;;;;;;4982343;28;20192;-62
2023/01/10 12:52:51;;;;;;;0.93;0.80;;;13.80;60.00;;;;;;4986619;28;20239;-63
2023/01/10 12:55:21;;;;;;;1.90;0.83;;;13.80;59.60;;;;;;4985169;28;20216;-63
2023/01/10 12:57:52;;;;;;;1.90;1.10;;;13.90;59.00;;;;;;4980831;28;20195;-63
2023/01/10 13:00:31;;;;;;;1.47;1.00;;;13.90;58.60;;;;;;4984888;28;20211;-63
2023/01/10 13:03:18;;;;;;;2.77;0.80;;;13.90;57.10;;;;;;4984378;28;20283;-63
2023/01/10 13:05:48;;;;;;;1.03;0.83;;;13.90;55.40;;;;;;4985829;28;20224;-63
2023/01/10 13:08:19;;;;;;;1.23;0.80;;;13.90;56.50;;;;;;4984544;28;20652;-63
2023/01/10 13:10:50;;;;;;;3.00;0.93;;;13.80;57.30;;;;;;4984568;28;20206;-63
2023/01/10 13:13:39;;;;;;;4.30;0.80;;;13.90;57.80;;;;;;4984769;28;20201;-63
2023/01/10 13:16:11;;;;;;;1.90;0.87;;;13.90;57.80;;;;;;4982898;28;20596;-63
2023/01/10 13:19:01;;;;;;;3.00;1.00;;;13.90;57.50;;;;;;4989424;28;20257;-63
2023/01/10 13:21:31;;;;;;;1.40;1.00;;;13.90;57.30;;;;;;4987420;28;20224;-63
2023/01/10 13:24:03;;;;;;;1.90;1.33;;;13.90;57.80;;;;;;5003526;28;20618;-63